createdAt,value
2023-01-26T00:03:14.795Z,0
2023-01-26T00:03:55.392Z,0
2023-01-26T00:07:49.823Z,0
2023-01-26T00:08:30.319Z,0
2023-01-26T00:09:10.855Z,0
2023-01-26T00:09:52.165Z,0
2023-01-26T00:10:32.674Z,0
2023-01-26T00:11:14.089Z,0
2023-01-26T00:19:16.706Z,0
2023-01-26T00:19:57.211Z,0
2023-01-26T00:20:37.753Z,0
2023-01-26T00:21:18.286Z,0
2023-01-26T00:21:59.323Z,0
2023-01-26T00:22:39.845Z,0
2023-01-26T00:23:20.351Z,0
2023-01-26T00:24:00.968Z,0
2023-01-26T00:24:41.464Z,0
2023-01-26T00:31:26.784Z,0
2023-01-26T00:32:07.232Z,0
2023-01-26T00:32:47.781Z,0
2023-01-26T00:33:28.295Z,0
2023-01-26T00:34:08.781Z,0
2023-01-26T00:34:49.317Z,0
2023-01-26T00:35:29.838Z,0
2023-01-26T00:36:10.367Z,0
2023-01-26T00:36:50.879Z,0
2023-01-26T00:37:31.417Z,0
2023-01-26T00:40:10.154Z,0
2023-01-26T00:40:50.365Z,0
2023-01-26T00:41:30.892Z,0
2023-01-26T00:42:11.432Z,0
2023-01-26T00:42:51.945Z,0
2023-01-26T00:43:32.494Z,0
2023-01-26T00:44:13.016Z,0
2023-01-26T00:44:53.583Z,0
2023-01-26T00:45:34.122Z,0
2023-01-26T00:46:14.705Z,0
2023-01-26T00:53:00.653Z,0
2023-01-26T00:53:42.129Z,0
2023-01-26T00:54:22.641Z,0
2023-01-26T00:55:03.173Z,0
2023-01-26T00:57:16.776Z,0
2023-01-26T00:57:57.372Z,0
2023-01-26T00:58:37.917Z,0
2023-01-26T00:59:18.430Z,0
2023-01-26T01:02:37.082Z,0
2023-01-26T01:03:17.555Z,0
2023-01-26T01:03:58.040Z,0
2023-01-26T01:04:38.578Z,0
2023-01-26T01:05:19.118Z,0
2023-01-26T01:05:59.656Z,0
2023-01-26T01:06:40.172Z,0
2023-01-26T01:07:20.686Z,0
2023-01-26T01:09:33.691Z,0
2023-01-26T01:10:14.222Z,0
2023-01-26T01:10:54.837Z,0
2023-01-26T01:11:35.405Z,0
2023-01-26T01:12:15.921Z,0
2023-01-26T01:12:56.605Z,0
2023-01-26T01:13:36.978Z,0
2023-01-26T01:14:17.517Z,0
2023-01-26T01:14:58.013Z,0
2023-01-26T01:15:38.546Z,0
2023-01-26T01:21:03.554Z,0
2023-01-26T01:21:44.076Z,0
2023-01-26T01:22:24.589Z,0
2023-01-26T01:23:05.138Z,0
2023-01-26T01:23:45.671Z,0
2023-01-26T01:25:59.736Z,0
2023-01-26T01:26:40.289Z,0
2023-01-26T01:27:20.871Z,0
2023-01-26T01:28:01.390Z,0
2023-01-26T01:30:15.320Z,0
2023-01-26T01:30:55.914Z,0
2023-01-26T01:31:36.460Z,0
2023-01-26T01:32:16.913Z,0
2023-01-26T01:32:58.257Z,0
2023-01-26T01:33:38.779Z,0
2023-01-26T01:34:19.330Z,0
2023-01-26T01:34:59.816Z,0
2023-01-26T01:35:40.323Z,0
2023-01-26T01:39:43.420Z,0
2023-01-26T01:40:23.946Z,0
2023-01-26T01:41:04.480Z,0
2023-01-26T01:41:44.967Z,0
2023-01-26T01:42:25.489Z,0
2023-01-26T01:43:05.992Z,0
2023-01-26T01:43:46.520Z,0
2023-01-26T01:44:27.055Z,0
2023-01-26T01:45:07.574Z,0
2023-01-26T01:45:48.084Z,0
2023-01-26T01:49:48.241Z,0
2023-01-26T01:50:29.290Z,0
2023-01-26T01:51:09.871Z,0
2023-01-26T01:51:51.023Z,0
2023-01-26T01:54:05.565Z,0
2023-01-26T01:54:46.029Z,0
2023-01-26T01:55:26.582Z,0
2023-01-26T01:56:07.210Z,0
2023-01-26T01:56:47.721Z,0
2023-01-26T01:57:28.238Z,0
2023-01-26T01:58:08.805Z,0
2023-01-26T01:58:49.286Z,0
2023-01-26T01:59:29.814Z,0
2023-01-26T02:00:10.764Z,0
2023-01-26T02:03:29.306Z,0
2023-01-26T02:04:09.864Z,0
2023-01-26T02:04:50.425Z,0
2023-01-26T02:05:30.917Z,0
2023-01-26T02:06:11.415Z,0
2023-01-26T02:06:52.705Z,0
2023-01-26T02:07:33.258Z,0
2023-01-26T02:08:13.797Z,0
2023-01-26T02:08:54.328Z,0
2023-01-26T02:14:19.005Z,0
2023-01-26T02:14:59.534Z,0
2023-01-26T02:15:40.050Z,0
2023-01-26T02:16:20.667Z,0
2023-01-26T02:17:01.136Z,0
2023-01-26T02:17:41.638Z,0
2023-01-26T02:19:55.628Z,0
2023-01-26T02:20:36.156Z,0
2023-01-26T02:21:16.657Z,0
2023-01-26T02:21:57.266Z,0
2023-01-26T02:24:10.591Z,0
2023-01-26T02:24:51.112Z,0
2023-01-26T02:25:31.702Z,0
2023-01-26T02:26:12.269Z,0
2023-01-26T02:28:30.474Z,0
2023-01-26T02:29:10.999Z,0
2023-01-26T02:29:51.511Z,0
2023-01-26T02:30:32.086Z,0
2023-01-26T02:31:12.616Z,0
2023-01-26T02:31:53.091Z,0
2023-01-26T02:32:33.524Z,0
2023-01-26T02:33:14.001Z,0
2023-01-26T02:33:54.555Z,0
2023-01-26T02:34:35.079Z,0
2023-01-26T02:35:15.570Z,0
2023-01-26T02:39:15.063Z,0
2023-01-26T02:39:55.624Z,0
2023-01-26T02:40:36.724Z,0
2023-01-26T02:41:17.232Z,0
2023-01-26T02:41:57.754Z,0
2023-01-26T02:42:38.306Z,0
2023-01-26T02:43:18.825Z,0
2023-01-26T02:44:00.303Z,0
2023-01-26T02:50:04.980Z,0
2023-01-26T02:50:45.526Z,0
2023-01-26T02:51:26.016Z,0
2023-01-26T02:52:06.541Z,0
2023-01-26T02:54:20.120Z,0
2023-01-26T02:55:00.668Z,0
2023-01-26T02:55:41.246Z,0
2023-01-26T02:56:21.786Z,0
2023-01-26T02:58:50.082Z,0
2023-01-26T02:59:30.593Z,0
2023-01-26T03:00:11.323Z,0
2023-01-26T03:00:51.645Z,0
2023-01-26T03:01:32.624Z,0
2023-01-26T03:02:12.679Z,0
2023-01-26T03:02:53.140Z,0
2023-01-26T03:03:33.622Z,0
2023-01-26T03:04:14.126Z,0
2023-01-26T03:04:54.646Z,0
2023-01-26T03:05:35.162Z,0
2023-01-26T03:11:40.064Z,0
2023-01-26T03:12:20.723Z,0
2023-01-26T03:13:01.263Z,0
2023-01-26T03:13:41.808Z,0
2023-01-26T03:14:22.324Z,0
2023-01-26T03:15:02.866Z,0
2023-01-26T03:15:43.514Z,0
2023-01-26T03:16:23.955Z,0
2023-01-26T03:17:04.384Z,0
2023-01-26T03:17:44.942Z,0
2023-01-26T03:25:47.527Z,0
2023-01-26T03:26:28.045Z,0
2023-01-26T03:27:08.559Z,0
2023-01-26T03:27:49.064Z,0
2023-01-26T03:28:29.586Z,0
2023-01-26T03:29:10.086Z,0
2023-01-26T03:29:50.635Z,0
2023-01-26T03:30:31.178Z,0
2023-01-26T03:31:11.768Z,0
2023-01-26T03:31:52.276Z,0
2023-01-26T03:38:37.489Z,0
2023-01-26T03:39:18.034Z,0
2023-01-26T03:39:58.586Z,0
2023-01-26T03:40:39.106Z,0
2023-01-26T03:41:19.643Z,0
2023-01-26T03:42:00.724Z,0
2023-01-26T03:42:41.220Z,0
2023-01-26T03:43:21.753Z,0
2023-01-26T03:44:02.275Z,0
2023-01-26T03:49:27.412Z,0
2023-01-26T03:50:08.018Z,0
2023-01-26T03:50:48.545Z,0
2023-01-26T03:51:28.973Z,0
2023-01-26T03:52:09.501Z,0
2023-01-26T03:52:50.075Z,0
2023-01-26T03:53:30.555Z,0
2023-01-26T03:54:11.064Z,0
2023-01-26T03:54:51.589Z,0
2023-01-26T03:55:32.126Z,0
2023-01-26T04:02:17.443Z,0
2023-01-26T04:02:57.957Z,0
2023-01-26T04:03:38.472Z,0
2023-01-26T04:06:54.801Z,0
2023-01-26T04:07:35.328Z,0
2023-01-26T04:08:15.857Z,0
2023-01-26T04:08:56.336Z,0
2023-01-26T04:09:36.852Z,0
2023-01-26T04:10:17.452Z,0
2023-01-26T04:10:57.980Z,0
2023-01-26T04:11:38.514Z,0
2023-01-26T04:12:19.068Z,0
2023-01-26T04:12:59.586Z,0
2023-01-26T04:19:44.839Z,0
2023-01-26T04:20:25.412Z,0
2023-01-26T04:21:05.881Z,0
2023-01-26T04:21:46.367Z,0
2023-01-26T04:22:26.902Z,0
2023-01-26T04:23:07.441Z,0
2023-01-26T04:23:48.051Z,0
2023-01-26T04:24:28.498Z,0
2023-01-26T04:25:09.006Z,0
2023-01-26T04:25:49.562Z,0
2023-01-26T04:32:34.842Z,0
2023-01-26T04:33:15.342Z,0
2023-01-26T04:35:29.490Z,0
2023-01-26T04:36:10.032Z,0
2023-01-26T04:36:50.540Z,0
2023-01-26T04:37:31.052Z,0
2023-01-26T04:38:11.591Z,0
2023-01-26T04:38:52.129Z,0
2023-01-26T04:39:32.669Z,0
2023-01-26T04:40:13.428Z,0
2023-01-26T04:40:53.700Z,0
2023-01-26T04:44:10.210Z,0
2023-01-26T04:44:50.756Z,0
2023-01-26T04:45:31.321Z,0
2023-01-26T04:46:11.770Z,0
2023-01-26T04:46:52.299Z,0
2023-01-26T04:47:32.835Z,0
2023-01-26T04:48:13.348Z,0
2023-01-26T04:48:53.871Z,0
2023-01-26T04:51:07.812Z,0
2023-01-26T04:51:48.365Z,0
2023-01-26T04:52:29.074Z,0
2023-01-26T04:53:10.187Z,0
2023-01-26T04:55:29.126Z,0
2023-01-26T04:56:10.414Z,0
2023-01-26T04:56:50.917Z,0
2023-01-26T04:57:31.463Z,0
2023-01-26T04:58:11.984Z,0
2023-01-26T04:58:52.491Z,0
2023-01-26T04:59:33.047Z,0
2023-01-26T05:00:13.834Z,0
2023-01-26T05:00:54.147Z,0
2023-01-26T05:07:39.340Z,0
2023-01-26T05:08:19.858Z,0
2023-01-26T05:09:00.395Z,0
2023-01-26T05:09:40.907Z,0
2023-01-26T05:10:21.442Z,0
2023-01-26T05:12:34.505Z,0
2023-01-26T05:13:15.006Z,0
2023-01-26T05:13:55.544Z,0
2023-01-26T05:14:36.028Z,0
2023-01-26T05:17:04.338Z,0
2023-01-26T05:17:45.810Z,0
2023-01-26T05:18:28.231Z,0
2023-01-26T05:19:09.470Z,0
2023-01-26T05:21:22.581Z,0
2023-01-26T05:22:03.088Z,0
2023-01-26T05:22:43.679Z,0
2023-01-26T05:23:24.262Z,0
2023-01-26T05:24:04.805Z,0
2023-01-26T05:24:45.388Z,0
2023-01-26T05:26:43.833Z,0
2023-01-26T05:27:26.005Z,0
2023-01-26T05:28:07.511Z,0
2023-01-26T05:28:47.986Z,0
2023-01-26T05:31:02.582Z,0
2023-01-26T05:31:43.061Z,0
2023-01-26T05:32:23.574Z,0
2023-01-26T05:33:04.070Z,0
2023-01-26T05:33:44.590Z,0
2023-01-26T05:34:25.087Z,0
2023-01-26T05:35:06.553Z,0
2023-01-26T05:35:47.063Z,0
2023-01-26T05:36:27.560Z,0
2023-01-26T05:43:13.320Z,0
2023-01-26T05:43:53.812Z,0
2023-01-26T05:44:34.325Z,0
2023-01-26T05:45:14.841Z,0
2023-01-26T05:45:55.383Z,0
2023-01-26T05:46:35.890Z,0
2023-01-26T05:47:16.462Z,0
2023-01-26T05:47:56.972Z,0
2023-01-26T05:48:37.495Z,0
2023-01-26T05:53:17.474Z,0
2023-01-26T05:53:58.626Z,0
2023-01-26T05:54:39.143Z,0
2023-01-26T05:55:20.278Z,0
2023-01-26T05:56:00.784Z,0
2023-01-26T05:56:41.295Z,0
2023-01-26T05:57:21.820Z,0
2023-01-26T05:58:02.343Z,0
2023-01-26T06:03:27.181Z,0
2023-01-26T06:04:08.323Z,0
2023-01-26T06:04:48.807Z,0
2023-01-26T06:05:29.315Z,0
2023-01-26T06:06:09.847Z,0
2023-01-26T06:06:50.400Z,0
2023-01-26T06:07:30.931Z,0
2023-01-26T06:08:12.165Z,0
2023-01-26T06:14:57.538Z,0
2023-01-26T06:15:38.054Z,0
2023-01-26T06:16:19.330Z,0
2023-01-26T06:16:59.873Z,0
2023-01-26T06:17:40.327Z,0
2023-01-26T06:18:20.835Z,0
2023-01-26T06:19:01.340Z,0
2023-01-26T06:19:41.905Z,0
2023-01-26T06:20:22.439Z,0
2023-01-26T06:23:00.908Z,0
2023-01-26T06:23:41.407Z,0
2023-01-26T06:24:22.016Z,0
2023-01-26T06:25:02.497Z,0
2023-01-26T06:25:42.976Z,0
2023-01-26T06:26:24.307Z,0
2023-01-26T06:27:04.858Z,0
2023-01-26T06:27:45.409Z,0
2023-01-26T06:28:25.956Z,0
2023-01-26T06:34:30.629Z,0
2023-01-26T06:36:43.432Z,0
2023-01-26T06:37:24.000Z,0
2023-01-26T06:38:05.247Z,0
2023-01-26T06:38:45.829Z,0
2023-01-26T06:41:05.508Z,4
2023-01-26T06:41:46.024Z,4
2023-01-26T06:42:27.150Z,4
2023-01-26T06:43:07.661Z,0
2023-01-26T06:43:48.990Z,4
2023-01-26T06:44:30.395Z,4
2023-01-26T06:49:55.497Z,4
2023-01-26T06:50:36.057Z,8
2023-01-26T06:51:16.579Z,4
2023-01-26T06:51:57.085Z,8
2023-01-26T06:52:37.605Z,8
2023-01-26T06:53:18.732Z,8
2023-01-26T06:53:59.252Z,12
2023-01-26T06:54:39.781Z,12
2023-01-26T06:55:20.317Z,16
2023-01-26T07:02:05.552Z,28
2023-01-26T07:02:46.107Z,32
2023-01-26T07:03:26.555Z,32
2023-01-26T07:04:07.071Z,36
2023-01-26T07:04:47.586Z,36
2023-01-26T07:05:28.112Z,36
2023-01-26T07:06:08.657Z,36
2023-01-26T07:06:49.194Z,40
2023-01-26T07:09:02.472Z,52
2023-01-26T07:09:42.976Z,56
2023-01-26T07:10:23.495Z,64
2023-01-26T07:11:08.004Z,64
2023-01-26T07:11:46.301Z,68
2023-01-26T07:12:26.836Z,72
2023-01-26T07:13:52.298Z,80
2023-01-26T07:14:32.836Z,84
2023-01-26T07:15:14.227Z,88
2023-01-26T07:17:43.068Z,104
2023-01-26T07:18:24.149Z,112
2023-01-26T07:19:04.698Z,116
2023-01-26T07:19:47.712Z,120
2023-01-26T07:22:00.492Z,140
2023-01-26T07:22:41.027Z,152
2023-01-26T07:23:21.576Z,160
2023-01-26T07:24:02.139Z,164
2023-01-26T07:26:31.926Z,188
2023-01-26T07:27:12.443Z,196
2023-01-26T07:27:52.970Z,200
2023-01-26T07:28:33.485Z,208
2023-01-26T07:29:14.072Z,216
2023-01-26T07:29:54.569Z,216
2023-01-26T07:30:35.169Z,220
2023-01-26T07:31:15.807Z,224
2023-01-26T07:31:56.295Z,236
2023-01-26T07:34:09.293Z,244
2023-01-26T07:34:49.835Z,244
2023-01-26T07:35:30.400Z,252
2023-01-26T07:36:11.064Z,256
2023-01-26T07:38:24.223Z,228
2023-01-26T07:39:08.164Z,228
2023-01-26T07:39:47.742Z,236
2023-01-26T07:40:28.284Z,240
2023-01-26T07:41:09.380Z,240
2023-01-26T07:44:25.437Z,240
2023-01-26T07:45:06.817Z,240
2023-01-26T07:45:48.018Z,240
2023-01-26T07:46:28.634Z,244
2023-01-26T07:47:09.089Z,244
2023-01-26T07:47:50.549Z,244
2023-01-26T07:50:44.455Z,236
2023-01-26T07:51:24.983Z,232
2023-01-26T07:52:05.840Z,228
2023-01-26T07:52:47.383Z,224
2023-01-26T07:55:00.450Z,244
2023-01-26T07:55:40.941Z,244
2023-01-26T07:56:21.455Z,248
2023-01-26T07:57:03.544Z,256
2023-01-26T07:57:44.036Z,260
2023-01-26T07:58:24.553Z,268
2023-01-26T07:59:05.081Z,288
2023-01-26T08:04:16.175Z,412
2023-01-26T08:04:56.700Z,428
2023-01-26T08:05:37.327Z,424
2023-01-26T08:06:17.717Z,424
2023-01-26T08:06:58.213Z,412
2023-01-26T08:07:38.727Z,388
2023-01-26T08:08:19.263Z,392
2023-01-26T08:08:59.793Z,408
2023-01-26T08:09:40.298Z,432
2023-01-26T08:10:20.814Z,456
2023-01-26T08:13:21.003Z,456
2023-01-26T08:13:56.268Z,476
2023-01-26T08:14:46.284Z,492
2023-01-26T08:15:17.311Z,524
2023-01-26T08:15:57.866Z,544
2023-01-26T08:16:38.408Z,532
2023-01-26T08:17:18.876Z,532
2023-01-26T08:17:59.427Z,544
2023-01-26T08:18:40.559Z,564
2023-01-26T08:23:56.216Z,724
2023-01-26T08:24:37.421Z,732
2023-01-26T08:25:17.989Z,744
2023-01-26T08:25:59.392Z,756
2023-01-26T08:26:39.885Z,756
2023-01-26T08:27:20.449Z,752
2023-01-26T08:28:00.983Z,752
2023-01-26T08:37:00.068Z,856
2023-01-26T08:37:41.444Z,876
2023-01-26T08:38:22.585Z,892
2023-01-26T08:39:03.677Z,908
2023-01-26T08:39:44.702Z,920
2023-01-26T08:45:51.146Z,1032
2023-01-26T08:46:31.686Z,1040
2023-01-26T08:47:12.777Z,1044
2023-01-26T08:47:53.306Z,1024
2023-01-26T08:48:33.840Z,1000
2023-01-26T08:49:14.363Z,996
2023-01-26T08:49:54.860Z,992
2023-01-26T08:53:59.869Z,956
2023-01-26T08:54:40.382Z,948
2023-01-26T08:55:20.952Z,940
2023-01-26T08:56:01.471Z,940
2023-01-26T08:56:41.995Z,948
2023-01-26T08:57:22.562Z,960
2023-01-26T08:58:03.060Z,964
2023-01-26T08:58:43.597Z,956
2023-01-26T08:59:24.110Z,940
2023-01-26T09:00:04.665Z,932
2023-01-26T09:04:10.703Z,1008
2023-01-26T09:04:51.231Z,1024
2023-01-26T09:05:31.828Z,1048
2023-01-26T09:06:12.387Z,1072
2023-01-26T09:06:53.546Z,1116
2023-01-26T09:07:34.068Z,1156
2023-01-26T09:09:47.643Z,1288
2023-01-26T09:10:28.154Z,1300
2023-01-26T09:11:09.153Z,1304
2023-01-26T09:11:50.496Z,1308
2023-01-26T09:13:50.205Z,1340
2023-01-26T09:14:33.525Z,1360
2023-01-26T09:15:14.039Z,1380
2023-01-26T09:15:58.345Z,1396
2023-01-26T09:18:12.878Z,1348
2023-01-26T09:18:53.481Z,1332
2023-01-26T09:19:34.001Z,1316
2023-01-26T09:20:15.042Z,1300
2023-01-26T09:20:55.610Z,1284
2023-01-26T09:21:37.880Z,1260
2023-01-26T09:26:22.716Z,1156
2023-01-26T09:27:03.321Z,1204
2023-01-26T09:29:17.022Z,1312
2023-01-26T09:29:57.714Z,1380
2023-01-26T09:30:39.018Z,1432
2023-01-26T09:31:19.619Z,1476
2023-01-26T09:33:52.915Z,1528
2023-01-26T09:34:33.430Z,1524
2023-01-26T09:35:15.387Z,1516
2023-01-26T09:35:55.347Z,1520
2023-01-26T09:36:35.881Z,1516
2023-01-26T09:37:16.393Z,1524
2023-01-26T09:37:56.932Z,1540
2023-01-26T09:38:37.936Z,1560
2023-01-26T09:42:04.132Z,1488
2023-01-26T09:42:44.627Z,1476
2023-01-26T09:43:25.157Z,1500
2023-01-26T09:44:06.618Z,1528
2023-01-26T09:44:47.105Z,1516
2023-01-26T09:47:00.229Z,1688
2023-01-26T09:47:40.937Z,1756
2023-01-26T09:48:25.538Z,1772
2023-01-26T09:49:06.303Z,1764
2023-01-26T09:49:49.409Z,1736
2023-01-26T09:50:30.796Z,1704
2023-01-26T09:51:12.439Z,1676
2023-01-26T09:53:10.924Z,1644
2023-01-26T09:53:51.480Z,1612
2023-01-26T09:54:32.013Z,1580
2023-01-26T09:55:15.240Z,1572
2023-01-26T09:55:53.062Z,1580
2023-01-26T09:57:51.476Z,1608
2023-01-26T09:58:31.982Z,1632
2023-01-26T09:59:12.538Z,1640
2023-01-26T09:59:53.028Z,1664
2023-01-26T10:00:33.584Z,1680
2023-01-26T10:01:14.112Z,1668
2023-01-26T10:01:54.583Z,1648
2023-01-26T10:02:35.120Z,1644
2023-01-26T10:03:16.203Z,1640
2023-01-26T10:10:01.520Z,1376
2023-01-26T10:10:43.023Z,1352
2023-01-26T10:11:23.624Z,1324
2023-01-26T10:12:04.097Z,1296
2023-01-26T10:12:44.611Z,1288
2023-01-26T10:15:18.880Z,1184
2023-01-26T10:15:59.426Z,1136
2023-01-26T10:16:39.966Z,1116
2023-01-26T10:17:20.518Z,1140
2023-01-26T10:19:35.070Z,1100
2023-01-26T10:20:15.591Z,1044
2023-01-26T10:20:56.107Z,1000
2023-01-26T10:21:36.635Z,1000
2023-01-26T10:22:17.160Z,1036
2023-01-26T10:22:57.667Z,1060
2023-01-26T10:23:38.681Z,1132
2023-01-26T10:24:19.276Z,1272
2023-01-26T10:24:59.751Z,1460
2023-01-26T10:31:45.263Z,1920
2023-01-26T10:32:25.729Z,1968
2023-01-26T10:33:06.288Z,1956
2023-01-26T10:33:46.785Z,1924
2023-01-26T10:34:27.345Z,1896
2023-01-26T10:35:07.792Z,1872
2023-01-26T10:37:36.347Z,1896
2023-01-26T10:38:16.867Z,1948
2023-01-26T10:38:57.411Z,1988
2023-01-26T10:39:37.935Z,2012
2023-01-26T10:40:18.524Z,2012
2023-01-26T10:40:59.005Z,2000
2023-01-26T10:41:39.574Z,1980
2023-01-26T10:42:20.091Z,1956
2023-01-26T10:43:00.635Z,1924
2023-01-26T10:45:14.097Z,1852
2023-01-26T10:45:54.203Z,1832
2023-01-26T10:46:34.893Z,1808
2023-01-26T10:47:15.346Z,1768
2023-01-26T10:47:56.118Z,1736
2023-01-26T10:48:36.659Z,1724
2023-01-26T10:49:17.364Z,1704
2023-01-26T10:49:58.480Z,1688
2023-01-26T10:53:37.847Z,1672
2023-01-26T10:54:18.358Z,1680
2023-01-26T10:54:58.872Z,1708
2023-01-26T10:55:39.423Z,1724
2023-01-26T10:57:53.940Z,1652
2023-01-26T10:58:34.428Z,1620
2023-01-26T10:59:15.656Z,1600
2023-01-26T10:59:56.152Z,1580
2023-01-26T11:00:36.678Z,1568
2023-01-26T11:01:17.182Z,1544
2023-01-26T11:01:57.757Z,1524
2023-01-26T11:02:38.181Z,1512
2023-01-26T11:03:18.706Z,1500
2023-01-26T11:07:57.754Z,1384
2023-01-26T11:08:38.270Z,1356
2023-01-26T11:09:18.823Z,1336
2023-01-26T11:09:59.359Z,1312
2023-01-26T11:10:39.889Z,1284
2023-01-26T11:11:20.372Z,1240
2023-01-26T11:13:33.526Z,1384
2023-01-26T11:14:14.029Z,1492
2023-01-26T11:14:54.540Z,1568
2023-01-26T11:15:35.150Z,1592
2023-01-26T11:17:49.656Z,1392
2023-01-26T11:18:30.200Z,1356
2023-01-26T11:19:10.681Z,1332
2023-01-26T11:19:51.250Z,1368
2023-01-26T11:20:31.775Z,1436
2023-01-26T11:21:12.332Z,1484
2023-01-26T11:21:52.850Z,1476
2023-01-26T11:22:33.398Z,1432
2023-01-26T11:23:13.901Z,1420
2023-01-26T11:23:54.471Z,1424
2023-01-26T11:27:53.852Z,1412
2023-01-26T11:28:36.178Z,1384
2023-01-26T11:29:17.465Z,1364
2023-01-26T11:29:58.793Z,1376
2023-01-26T11:31:59.500Z,1384
2023-01-26T11:32:41.365Z,1412
2023-01-26T11:33:22.847Z,1436
2023-01-26T11:35:51.727Z,1504
2023-01-26T11:36:32.289Z,1500
2023-01-26T11:37:12.834Z,1472
2023-01-26T11:37:54.045Z,1464
2023-01-26T11:38:33.932Z,1504
2023-01-26T11:40:47.687Z,1756
2023-01-26T11:41:29.048Z,1912
2023-01-26T11:42:11.126Z,2028
2023-01-26T11:42:51.663Z,2004
2023-01-26T11:45:04.768Z,2340
2023-01-26T11:45:45.298Z,2376
2023-01-26T11:46:25.791Z,2284
2023-01-26T11:47:06.325Z,2216
2023-01-26T11:47:47.701Z,2232
2023-01-26T11:48:28.213Z,2220
2023-01-26T11:49:08.721Z,2248
2023-01-26T11:49:49.220Z,2244
2023-01-26T11:50:29.766Z,2256
2023-01-26T11:55:54.651Z,2408
2023-01-26T11:56:35.200Z,2420
2023-01-26T11:57:15.731Z,2288
2023-01-26T11:59:28.769Z,2500
2023-01-26T12:00:14.812Z,2600
2023-01-26T12:00:49.812Z,2652
2023-01-26T12:01:30.420Z,2768
2023-01-26T12:02:11.042Z,2884
2023-01-26T12:02:51.588Z,2952
2023-01-26T12:03:32.162Z,3000
2023-01-26T12:04:12.629Z,3036
2023-01-26T12:04:53.141Z,3100
2023-01-26T12:05:33.678Z,3152
2023-01-26T12:11:39.380Z,3124
2023-01-26T12:12:19.916Z,3156
2023-01-26T12:13:00.434Z,3096
2023-01-26T12:13:40.968Z,3148
2023-01-26T12:14:21.466Z,3148
2023-01-26T12:15:03.274Z,3208
2023-01-26T12:15:42.530Z,3152
2023-01-26T12:16:23.075Z,3212
2023-01-26T12:18:49.074Z,3308
2023-01-26T12:19:16.573Z,3364
2023-01-26T12:19:57.159Z,3452
2023-01-26T12:20:38.142Z,3496
2023-01-26T12:21:18.669Z,3516
2023-01-26T12:24:58.560Z,3660
2023-01-26T12:25:19.643Z,3724
2023-01-26T12:25:56.203Z,3760
2023-01-26T12:26:36.681Z,3772
2023-01-26T12:27:17.904Z,3776
2023-01-26T12:27:58.966Z,3800
2023-01-26T12:28:40.493Z,3828
2023-01-26T12:33:25.508Z,3988
2023-01-26T12:34:06.025Z,3984
2023-01-26T12:34:46.584Z,3984
2023-01-26T12:35:27.073Z,3980
2023-01-26T12:36:07.609Z,3964
2023-01-26T12:36:48.123Z,3932
2023-01-26T12:37:28.625Z,3852
2023-01-26T12:38:17.821Z,3808
2023-01-26T12:38:49.732Z,3800
2023-01-26T12:45:35.162Z,4188
2023-01-26T12:46:15.707Z,4232
2023-01-26T12:46:56.235Z,4292
2023-01-26T12:47:36.750Z,4348
2023-01-26T12:48:17.982Z,4380
2023-01-26T12:48:59.390Z,4400
2023-01-26T12:49:39.992Z,4436
2023-01-26T12:51:37.945Z,4392
2023-01-26T12:52:18.510Z,4384
2023-01-26T12:53:00.047Z,4388
2023-01-26T12:53:40.588Z,4384
2023-01-26T12:54:21.096Z,4356
2023-01-26T12:55:01.689Z,4308
2023-01-26T12:55:42.294Z,4276
2023-01-26T12:59:49.144Z,4100
2023-01-26T13:00:29.116Z,4064
2023-01-26T13:01:09.747Z,4036
2023-01-26T13:01:50.433Z,4020
2023-01-26T13:02:30.906Z,3988
2023-01-26T13:04:43.561Z,4068
2023-01-26T13:05:24.035Z,4120
2023-01-26T13:06:06.552Z,4176
2023-01-26T13:06:47.054Z,4216
2023-01-26T13:07:27.660Z,4232
2023-01-26T13:13:30.746Z,3864
2023-01-26T13:14:14.021Z,3780
2023-01-26T13:14:57.897Z,3704
2023-01-26T13:15:42.153Z,3656
2023-01-26T13:16:26.461Z,3612
2023-01-26T13:17:15.393Z,3604
2023-01-26T13:18:04.173Z,3624
2023-01-26T13:18:50.142Z,3660
2023-01-26T13:19:36.219Z,3700
2023-01-26T13:20:23.427Z,3756
2023-01-26T13:21:50.139Z,3832
2023-01-26T13:22:38.247Z,3872
2023-01-26T13:23:24.248Z,3896
2023-01-26T13:24:09.278Z,3916
2023-01-26T13:24:54.236Z,3920
2023-01-26T13:26:22.182Z,3932
2023-01-26T13:27:02.760Z,3952
2023-01-26T13:27:46.750Z,3952
2023-01-26T13:28:30.647Z,3944
2023-01-26T13:29:14.644Z,3908
2023-01-26T13:30:43.181Z,3752
2023-01-26T13:31:29.198Z,3680
2023-01-26T13:32:13.171Z,3636
2023-01-26T13:32:53.795Z,3608
2023-01-26T13:34:20.143Z,3532
2023-01-26T13:35:05.451Z,3508
2023-01-26T13:35:45.267Z,3488
2023-01-26T13:37:09.996Z,3556
2023-01-26T13:38:08.163Z,3616
2023-01-26T13:39:07.150Z,3752
2023-01-26T13:39:52.644Z,3808
2023-01-26T13:40:51.706Z,3788
2023-01-26T13:41:35.644Z,3740
2023-01-26T13:42:31.656Z,3676
2023-01-26T13:43:25.531Z,3564
2023-01-26T13:44:03.156Z,3448
2023-01-26T13:44:48.847Z,3300
2023-01-26T13:45:42.759Z,3148
2023-01-26T13:46:29.023Z,3164
2023-01-26T13:47:12.907Z,3100
2023-01-26T13:47:55.023Z,3048
2023-01-26T13:49:19.438Z,3120
2023-01-26T13:50:03.667Z,3188
2023-01-26T13:50:51.738Z,3196
2023-01-26T13:52:24.129Z,3124
2023-01-26T13:53:12.164Z,3136
2023-01-26T13:53:56.523Z,3152
2023-01-26T13:54:39.771Z,3120
2023-01-26T13:55:23.093Z,3084
2023-01-26T13:56:10.139Z,2980
2023-01-26T13:56:52.695Z,2852
2023-01-26T13:57:41.752Z,2684
2023-01-26T13:59:11.925Z,2328
2023-01-26T14:00:40.682Z,2044
2023-01-26T14:01:24.700Z,1952
2023-01-26T14:02:10.791Z,1880
2023-01-26T14:02:53.259Z,1816
2023-01-26T14:03:33.792Z,1736
2023-01-26T14:05:00.288Z,1604
2023-01-26T14:05:42.562Z,1600
2023-01-26T14:08:28.812Z,1936
2023-01-26T14:09:09.359Z,2048
2023-01-26T14:09:51.493Z,2140
2023-01-26T14:10:35.229Z,2188
2023-01-26T14:11:20.401Z,2204
2023-01-26T14:14:11.657Z,2232
2023-01-26T14:16:20.689Z,2192
2023-01-26T14:17:04.085Z,2120
2023-01-26T14:19:08.668Z,1844
2023-01-26T14:19:52.720Z,1732
2023-01-26T14:20:36.659Z,1616
2023-01-26T14:21:20.771Z,1520
2023-01-26T14:22:01.403Z,1460
2023-01-26T14:23:30.957Z,1464
2023-01-26T14:24:17.243Z,1556
2023-01-26T14:24:59.656Z,1668
2023-01-26T14:25:43.297Z,1752
2023-01-26T14:27:09.959Z,1792
2023-01-26T14:27:55.636Z,1772
2023-01-26T14:29:18.625Z,1744
2023-01-26T14:30:02.928Z,1728
2023-01-26T14:31:31.917Z,1716
2023-01-26T14:32:12.484Z,1732
2023-01-26T14:32:56.728Z,1728
2023-01-26T14:35:01.924Z,1708
2023-01-26T14:35:45.331Z,1700
2023-01-26T14:38:32.140Z,1696
2023-01-26T14:39:15.921Z,1700
2023-01-26T14:40:00.174Z,1704
2023-01-26T14:40:42.400Z,1708
2023-01-26T14:41:30.140Z,1720
2023-01-26T14:42:18.169Z,1724
2023-01-26T14:43:03.186Z,1732
2023-01-26T14:43:45.678Z,1728
2023-01-26T14:44:29.945Z,1716
2023-01-26T14:45:10.593Z,1700
2023-01-26T14:45:56.889Z,1704
2023-01-26T14:46:39.277Z,1716
2023-01-26T14:47:19.665Z,1724
2023-01-26T14:48:02.806Z,1720
2023-01-26T14:48:46.075Z,1716
2023-01-26T14:50:09.108Z,1728
2023-01-26T14:50:53.173Z,1748
2023-01-26T14:52:19.234Z,1828
2023-01-26T14:52:59.910Z,1868
2023-01-26T14:53:42.896Z,1888
2023-01-26T14:54:28.936Z,1864
2023-01-26T14:55:12.686Z,1816
2023-01-26T14:56:44.351Z,1568
2023-01-26T14:58:14.748Z,1464
2023-01-26T14:58:59.753Z,1456
2023-01-26T14:59:44.164Z,1444
2023-01-26T15:01:12.471Z,1440
2023-01-26T15:01:54.649Z,1436
2023-01-26T15:04:01.284Z,1412
2023-01-26T15:06:14.827Z,1380
2023-01-26T15:06:56.288Z,1380
2023-01-26T15:07:36.881Z,1388
2023-01-26T15:08:17.367Z,1400
2023-01-26T15:08:57.887Z,1400
2023-01-26T15:09:38.443Z,1392
2023-01-26T15:10:18.931Z,1388
2023-01-26T15:11:00.361Z,1392
2023-01-26T15:13:45.971Z,1368
2023-01-26T15:14:26.435Z,1352
2023-01-26T15:15:06.952Z,1324
2023-01-26T15:15:48.016Z,1284
2023-01-26T15:16:29.394Z,1248
2023-01-26T15:21:54.909Z,1104
2023-01-26T15:22:35.383Z,1084
2023-01-26T15:23:15.899Z,1056
2023-01-26T15:23:58.024Z,1024
2023-01-26T15:24:40.952Z,984
2023-01-26T15:27:25.521Z,748
2023-01-26T15:28:06.047Z,688
2023-01-26T15:28:47.478Z,644
2023-01-26T15:29:27.984Z,612
2023-01-26T15:30:08.437Z,584
2023-01-26T15:30:50.526Z,568
2023-01-26T15:36:14.589Z,464
2023-01-26T15:36:55.611Z,456
2023-01-26T15:37:36.910Z,452
2023-01-26T15:39:50.037Z,420
2023-01-26T15:40:30.567Z,412
2023-01-26T15:41:11.108Z,400
2023-01-26T15:41:51.676Z,392
2023-01-26T15:42:32.209Z,380
2023-01-26T15:43:12.722Z,372
2023-01-26T15:43:53.372Z,364
2023-01-26T15:44:34.440Z,348
2023-01-26T15:49:59.881Z,268